Time;durP1;ratioP1;P1;durP2;ratioP2;P2;SDS_P1;SDS_P2;PMS_P1;PMS_P2;Temp;Humidity;BMP_temperature;BMP_pressure;BME280_temperature;BME280_humidity;BME280_pressure;Samples;Min_cycle;Max_cycle;Signal;HPM_P1;HPM_P2
2021/11/12 00:13:05;;;;;;;79.47;33.17;;;;;;;;;;4957866;28;20065;-58
2021/11/12 00:15:30;;;;;;;82.88;32.85;;;;;;;;;;4964923;28;20049;-57
2021/11/12 00:17:57;;;;;;;87.85;35.30;;;;;;;;;;4961775;28;20477;-57
2021/11/12 00:20:23;;;;;;;77.15;32.42;;;;;;;;;;4962557;28;20054;-58
2021/11/12 00:22:49;;;;;;;81.55;34.13;;;;;;;;;;4976231;28;20521;-58
2021/11/12 00:25:15;;;;;;;73.57;33.40;;;;;;;;;;4960247;28;20027;-58
2021/11/12 00:27:40;;;;;;;75.90;32.50;;;;;;;;;;4962489;28;20508;-58
2021/11/12 00:32:51;;;;;;;85.50;34.58;;;;;;;;;;4961273;28;20081;-58
2021/11/12 00:35:38;;;;;;;73.93;34.92;;;;;;;;;;4962477;28;20043;-58
2021/11/12 00:40:36;;;;;;;78.32;33.75;;;;;;;;;;4960968;28;20498;-59
2021/11/12 00:45:30;;;;;;;79.55;32.55;;;;;;;;;;4964698;28;20585;-59
2021/11/12 00:48:10;;;;;;;75.88;34.33;;;;;;;;;;4964961;28;20046;-59
2021/11/12 00:55:39;;;;;;;92.85;35.38;;;;;;;;;;4965231;28;20126;-58
2021/11/12 00:58:05;;;;;;;91.00;36.42;;;;;;;;;;4963631;28;20039;-59
2021/11/12 01:00:30;;;;;;;85.10;34.83;;;;;;;;;;4966780;28;20031;-58
2021/11/12 01:02:56;;;;;;;91.93;37.38;;;;;;;;;;4967652;28;20130;-58
2021/11/12 01:05:22;;;;;;;106.22;40.42;;;;;;;;;;4966037;28;20027;-58
2021/11/12 01:07:48;;;;;;;102.72;38.92;;;;;;;;;;4962555;28;20513;-58
2021/11/12 01:10:15;;;;;;;115.70;42.58;;;;;;;;;;4960545;28;20342;-58
2021/11/12 01:12:42;;;;;;;99.47;41.53;;;;;;;;;;4965165;28;20042;-58
2021/11/12 01:15:10;;;;;;;105.13;43.22;;;;;;;;;;4961750;28;20449;-58
2021/11/12 01:17:36;;;;;;;106.50;41.90;;;;;;;;;;4963267;28;20051;-58
2021/11/12 01:20:04;;;;;;;102.25;39.00;;;;;;;;;;4965321;28;20022;-58
2021/11/12 01:22:30;;;;;;;96.18;38.10;;;;;;;;;;4965897;28;20038;-58
2021/11/12 01:24:55;;;;;;;97.65;37.40;;;;;;;;;;4960946;28;20041;-58
2021/11/12 01:27:21;;;;;;;89.65;37.30;;;;;;;;;;4964267;28;20031;-58
2021/11/12 01:29:46;;;;;;;97.03;37.90;;;;;;;;;;4961001;28;20594;-58
2021/11/12 01:32:26;;;;;;;106.65;38.08;;;;;;;;;;4965063;28;20061;-57
2021/11/12 01:34:54;;;;;;;102.22;35.95;;;;;;;;;;4966314;28;20081;-57
2021/11/12 01:37:21;;;;;;;98.97;36.95;;;;;;;;;;4964867;28;20051;-57
2021/11/12 01:39:57;;;;;;;103.50;38.90;;;;;;;;;;4965224;28;20029;-57
2021/11/12 01:42:26;;;;;;;100.43;36.42;;;;;;;;;;4963910;28;20042;-57
2021/11/12 01:45:05;;;;;;;87.50;34.35;;;;;;;;;;4964189;28;20026;-59
2021/11/12 01:47:41;;;;;;;98.43;37.83;;;;;;;;;;4963134;28;20394;-58
2021/11/12 01:50:12;;;;;;;96.45;36.63;;;;;;;;;;4964051;28;20422;-58
2021/11/12 01:52:40;;;;;;;111.03;38.90;;;;;;;;;;4966359;28;20039;-58
2021/11/12 02:00:08;;;;;;;94.03;37.22;;;;;;;;;;4961023;28;20019;-59
2021/11/12 02:02:34;;;;;;;94.38;36.65;;;;;;;;;;4961777;28;20439;-58
2021/11/12 02:04:59;;;;;;;99.15;39.25;;;;;;;;;;4962085;28;20080;-58
2021/11/12 02:07:25;;;;;;;88.82;34.95;;;;;;;;;;4960456;28;20114;-58
2021/11/12 02:09:51;;;;;;;102.60;37.38;;;;;;;;;;4962584;28;20126;-58
2021/11/12 02:12:27;;;;;;;98.40;36.03;;;;;;;;;;4962418;28;20034;-57
2021/11/12 02:14:54;;;;;;;90.88;34.53;;;;;;;;;;4965695;28;20493;-57
2021/11/12 02:17:22;;;;;;;85.40;33.38;;;;;;;;;;4964307;28;20066;-58
2021/11/12 02:19:57;;;;;;;83.93;33.00;;;;;;;;;;4962403;28;20114;-57
2021/11/12 02:22:26;;;;;;;81.22;33.53;;;;;;;;;;4960434;28;20118;-57
2021/11/12 02:24:54;;;;;;;86.68;33.10;;;;;;;;;;4962162;28;20110;-57
2021/11/12 02:27:22;;;;;;;92.95;33.70;;;;;;;;;;4963572;28;20042;-58
2021/11/12 02:29:52;;;;;;;91.10;34.25;;;;;;;;;;4961126;28;20025;-56
2021/11/12 02:32:20;;;;;;;93.63;34.47;;;;;;;;;;4962491;28;20093;-58
2021/11/12 02:34:48;;;;;;;95.70;35.20;;;;;;;;;;4958598;28;20030;-57
2021/11/12 02:37:13;;;;;;;101.10;38.22;;;;;;;;;;4978945;28;20700;-57
2021/11/12 02:39:39;;;;;;;95.55;37.50;;;;;;;;;;4967000;28;20035;-57
2021/11/12 02:42:05;;;;;;;93.63;37.67;;;;;;;;;;4962750;28;20038;-58
2021/11/12 02:44:34;;;;;;;97.57;37.40;;;;;;;;;;4962546;28;20034;-57
2021/11/12 02:47:00;;;;;;;102.15;38.25;;;;;;;;;;4960756;28;20482;-58
2021/11/12 02:49:26;;;;;;;90.90;34.75;;;;;;;;;;4961634;28;20089;-57
2021/11/12 02:51:51;;;;;;;98.40;33.38;;;;;;;;;;4964014;28;20133;-58
2021/11/12 02:54:17;;;;;;;93.45;33.47;;;;;;;;;;4962664;28;20085;-58
2021/11/12 02:56:44;;;;;;;92.10;33.38;;;;;;;;;;4967184;28;20023;-58
2021/11/12 02:59:12;;;;;;;92.82;32.88;;;;;;;;;;4959920;28;20462;-58
2021/11/12 03:01:44;;;;;;;93.68;32.20;;;;;;;;;;4960611;28;20465;-58
2021/11/12 03:04:09;;;;;;;97.75;34.95;;;;;;;;;;4962223;28;20027;-58
2021/11/12 03:06:38;;;;;;;94.15;34.15;;;;;;;;;;4964088;28;20089;-58
2021/11/12 03:09:06;;;;;;;95.07;33.35;;;;;;;;;;4975703;28;20110;-58
2021/11/12 03:11:33;;;;;;;88.43;34.25;;;;;;;;;;4958867;28;20042;-58
2021/11/12 03:13:59;;;;;;;103.43;35.92;;;;;;;;;;4963095;28;20088;-57
2021/11/12 03:16:25;;;;;;;98.47;35.42;;;;;;;;;;4961902;28;20035;-57
2021/11/12 03:18:51;;;;;;;95.55;37.72;;;;;;;;;;4964456;28;20022;-58
2021/11/12 03:21:20;;;;;;;92.20;36.03;;;;;;;;;;4960573;28;20031;-57
2021/11/12 03:24:02;;;;;;;79.72;33.40;;;;;;;;;;4959637;28;20035;-58
2021/11/12 03:26:34;;;;;;;70.68;32.05;;;;;;;;;;4978745;28;20441;-58
2021/11/12 04:04:23;;;;;;;88.47;34.20;;;;;;;;;;4959634;28;20524;-58
2021/11/12 05:56:40;;;;;;;67.55;27.63;;;;;;;;;;4966826;28;20067;-58
2021/11/12 05:59:06;;;;;;;55.42;26.60;;;;;;;;;;4964827;28;20054;-58
2021/11/12 06:01:31;;;;;;;58.75;27.00;;;;;;;;;;4965949;28;20035;-58
2021/11/12 06:03:57;;;;;;;68.70;28.40;;;;;;;;;;4962074;28;20058;-58
2021/11/12 06:06:23;;;;;;;66.20;27.27;;;;;;;;;;4964767;28;20026;-58
2021/11/12 06:08:49;;;;;;;72.38;29.63;;;;;;;;;;4966237;28;20037;-58
2021/11/12 06:11:14;;;;;;;82.70;34.15;;;;;;;;;;4963100;28;20801;-57
2021/11/12 06:13:40;;;;;;;77.85;32.45;;;;;;;;;;4962865;28;20038;-57
2021/11/12 06:16:05;;;;;;;69.60;28.88;;;;;;;;;;4966035;28;20030;-58
2021/11/12 06:18:31;;;;;;;65.95;26.80;;;;;;;;;;4960997;28;20018;-58
2021/11/12 06:20:56;;;;;;;59.42;24.23;;;;;;;;;;4959709;28;20031;-58
2021/11/12 06:23:21;;;;;;;65.60;27.17;;;;;;;;;;4957967;28;20438;-57
2021/11/12 06:25:47;;;;;;;58.10;26.40;;;;;;;;;;4964564;28;20114;-58
2021/11/12 06:28:12;;;;;;;67.60;27.85;;;;;;;;;;4965079;28;20031;-59
2021/11/12 06:30:38;;;;;;;67.05;27.83;;;;;;;;;;4964303;28;20082;-58
2021/11/12 06:33:03;;;;;;;67.63;28.23;;;;;;;;;;4959388;28;20035;-58
2021/11/12 06:35:29;;;;;;;67.65;28.55;;;;;;;;;;4961013;28;20023;-57
2021/11/12 06:37:55;;;;;;;72.03;30.63;;;;;;;;;;4963882;28;20023;-57
2021/11/12 06:40:21;;;;;;;76.68;31.85;;;;;;;;;;4963706;28;20026;-58
2021/11/12 06:43:23;;;;;;;77.28;30.55;;;;;;;;;;4961960;28;20027;-58
2021/11/12 06:51:06;;;;;;;85.03;33.97;;;;;;;;;;4965214;28;20541;-58
2021/11/12 06:53:32;;;;;;;81.78;32.95;;;;;;;;;;4960798;28;20027;-57
2021/11/12 06:56:01;;;;;;;77.93;33.58;;;;;;;;;;4963298;28;20069;-58
2021/11/12 06:58:29;;;;;;;73.45;31.40;;;;;;;;;;4961086;28;20528;-58
2021/11/12 07:00:56;;;;;;;85.10;34.10;;;;;;;;;;4960335;28;20488;-58
2021/11/12 07:03:23;;;;;;;83.20;34.38;;;;;;;;;;4960520;28;20031;-58
2021/11/12 07:05:49;;;;;;;87.13;31.88;;;;;;;;;;4964987;28;20030;-58
2021/11/12 07:08:15;;;;;;;79.25;32.35;;;;;;;;;;4959215;28;20039;-58
2021/11/12 07:10:40;;;;;;;77.68;31.83;;;;;;;;;;4961514;28;20034;-57
2021/11/12 07:13:06;;;;;;;68.55;30.85;;;;;;;;;;4958478;28;20050;-58
2021/11/12 07:15:31;;;;;;;69.97;30.92;;;;;;;;;;4958745;28;20027;-58
2021/11/12 07:17:57;;;;;;;66.40;31.02;;;;;;;;;;4964477;28;20084;-58
2021/11/12 07:20:22;;;;;;;68.30;30.02;;;;;;;;;;4960507;28;20077;-58
2021/11/12 07:22:48;;;;;;;73.95;32.47;;;;;;;;;;4961417;28;20047;-58
2021/11/12 07:25:14;;;;;;;65.53;30.83;;;;;;;;;;4960598;28;20027;-57
2021/11/12 07:27:39;;;;;;;61.15;29.92;;;;;;;;;;4962217;28;20035;-58
2021/11/12 07:30:08;;;;;;;71.70;30.38;;;;;;;;;;4960040;28;20461;-58
2021/11/12 07:32:33;;;;;;;76.97;32.85;;;;;;;;;;4957805;28;20042;-58
2021/11/12 07:34:59;;;;;;;83.75;35.83;;;;;;;;;;4958614;28;20438;-58
2021/11/12 07:37:28;;;;;;;79.95;34.47;;;;;;;;;;4964292;28;20413;-58
2021/11/12 07:39:55;;;;;;;80.32;34.00;;;;;;;;;;4959827;28;20109;-58
2021/11/12 07:42:52;;;;;;;70.53;30.60;;;;;;;;;;4961376;28;20031;-58
2021/11/12 07:45:35;;;;;;;69.32;31.02;;;;;;;;;;4963852;28;20559;-58
2021/11/12 07:48:00;;;;;;;69.10;29.35;;;;;;;;;;4963588;28;20548;-59
2021/11/12 07:50:26;;;;;;;65.82;30.20;;;;;;;;;;4962031;28;20054;-58
2021/11/12 07:52:51;;;;;;;67.18;29.08;;;;;;;;;;4960706;28;20182;-58
2021/11/12 07:55:17;;;;;;;66.43;31.05;;;;;;;;;;4963941;28;20258;-59
2021/11/12 07:57:42;;;;;;;72.65;30.20;;;;;;;;;;4960747;28;20023;-58
2021/11/12 08:00:09;;;;;;;70.82;32.88;;;;;;;;;;4962456;28;20076;-58
2021/11/12 08:02:34;;;;;;;82.15;35.03;;;;;;;;;;4963011;28;20043;-58
2021/11/12 08:05:07;;;;;;;74.65;32.10;;;;;;;;;;4961083;28;20038;-58
2021/11/12 08:07:33;;;;;;;65.18;28.80;;;;;;;;;;4959236;28;20022;-59
2021/11/12 08:10:01;;;;;;;53.38;26.05;;;;;;;;;;4962746;28;20085;-58
2021/11/12 08:12:35;;;;;;;48.15;24.98;;;;;;;;;;4962356;28;20031;-58
2021/11/12 08:15:32;;;;;;;46.45;24.20;;;;;;;;;;4959370;28;20031;-58
2021/11/12 08:21:08;;;;;;;52.95;27.55;;;;;;;;;;4943443;28;22676;-59
2021/11/12 08:26:33;;;;;;;80.38;32.95;;;;;;;;;;4961215;28;20027;-58
2021/11/12 08:39:26;;;;;;;58.80;26.33;;;;;;;;;;4960327;28;20082;-58
2021/11/12 08:41:56;;;;;;;63.22;27.67;;;;;;;;;;4957972;28;20105;-57
2021/11/12 08:47:15;;;;;;;63.47;27.88;;;;;;;;;;4961883;28;20035;-58
2021/11/12 08:49:43;;;;;;;71.15;31.05;;;;;;;;;;4958586;28;20110;-58
2021/11/12 08:52:13;;;;;;;66.25;30.88;;;;;;;;;;4958763;28;20027;-58
2021/11/12 08:54:41;;;;;;;;;;;;;;;;;;4958519;28;20031;-58
2021/11/12 08:57:11;;;;;;;74.38;31.17;;;;;;;;;;4958102;28;19925;-58
2021/11/12 08:59:40;;;;;;;80.45;33.85;;;;;;;;;;4961847;28;20030;-58
2021/11/12 09:02:13;;;;;;;72.68;31.85;;;;;;;;;;4971830;28;20600;-58
2021/11/12 09:04:39;;;;;;;70.88;31.95;;;;;;;;;;4962012;28;20390;-57
2021/11/12 09:07:04;;;;;;;75.05;32.35;;;;;;;;;;4962693;28;20030;-58
2021/11/12 09:09:33;;;;;;;71.53;31.23;;;;;;;;;;4965310;28;20029;-58
2021/11/12 09:11:59;;;;;;;69.15;30.38;;;;;;;;;;4958016;28;20030;-58
2021/11/12 09:14:26;;;;;;;61.78;29.33;;;;;;;;;;4961741;28;20045;-58
2021/11/12 09:16:52;;;;;;;66.28;28.95;;;;;;;;;;4962609;28;20046;-58
2021/11/12 09:19:17;;;;;;;61.80;29.15;;;;;;;;;;4962267;28;20019;-58
2021/11/12 09:21:46;;;;;;;61.60;28.90;;;;;;;;;;4961242;28;20034;-59
2021/11/12 09:24:11;;;;;;;69.32;32.40;;;;;;;;;;4957089;28;20038;-58
2021/11/12 09:26:38;;;;;;;59.75;29.55;;;;;;;;;;4961729;28;20023;-58
2021/11/12 09:29:05;;;;;;;59.83;30.63;;;;;;;;;;4963689;28;20504;-58
2021/11/12 09:31:31;;;;;;;62.75;30.42;;;;;;;;;;4957639;28;20503;-58
2021/11/12 09:33:57;;;;;;;54.40;29.52;;;;;;;;;;4960187;28;20038;-58
2021/11/12 09:36:24;;;;;;;60.90;30.33;;;;;;;;;;4963775;28;20105;-57
2021/11/12 09:38:49;;;;;;;58.88;30.80;;;;;;;;;;4960318;28;20129;-57
2021/11/12 09:41:15;;;;;;;55.65;29.15;;;;;;;;;;4959783;28;20564;-58
2021/11/12 09:43:40;;;;;;;60.08;29.20;;;;;;;;;;4945342;28;20094;-59
2021/11/12 09:46:07;;;;;;;63.55;30.77;;;;;;;;;;4967607;28;20042;-58
2021/11/12 09:48:33;;;;;;;56.13;27.95;;;;;;;;;;4962073;28;20029;-58
2021/11/12 09:50:59;;;;;;;66.57;30.88;;;;;;;;;;4961663;28;20462;-58
2021/11/12 09:53:25;;;;;;;58.85;28.77;;;;;;;;;;4962008;28;20041;-58
2021/11/12 09:55:53;;;;;;;54.80;28.38;;;;;;;;;;4961606;28;20030;-58
2021/11/12 09:58:19;;;;;;;60.53;28.38;;;;;;;;;;4964526;28;20042;-57
2021/11/12 10:00:45;;;;;;;56.75;28.67;;;;;;;;;;4958747;28;20050;-58
2021/11/12 10:03:10;;;;;;;54.95;28.45;;;;;;;;;;4963369;28;20062;-57
2021/11/12 10:05:42;;;;;;;60.10;30.15;;;;;;;;;;4955965;28;20066;-57
2021/11/12 10:08:39;;;;;;;59.10;31.00;;;;;;;;;;4961887;28;20030;-58
2021/11/12 10:11:09;;;;;;;60.25;32.05;;;;;;;;;;4949805;28;20070;-57
2021/11/12 10:13:47;;;;;;;63.40;32.05;;;;;;;;;;4963911;28;20031;-58
2021/11/12 10:19:06;;;;;;;59.42;31.20;;;;;;;;;;4960445;28;20039;-58
2021/11/12 10:21:34;;;;;;;71.10;34.95;;;;;;;;;;4959755;28;20054;-58
2021/11/12 10:24:15;;;;;;;74.63;38.00;;;;;;;;;;4960454;28;20107;-58
2021/11/12 10:26:40;;;;;;;56.55;31.35;;;;;;;;;;4956223;28;20026;-57
2021/11/12 10:29:09;;;;;;;54.88;29.17;;;;;;;;;;4962448;28;20542;-58
2021/11/12 10:31:47;;;;;;;58.53;31.73;;;;;;;;;;4958872;28;20062;-58
2021/11/12 10:34:19;;;;;;;59.33;31.05;;;;;;;;;;4962315;28;20393;-58
2021/11/12 10:37:00;;;;;;;54.97;29.70;;;;;;;;;;4963120;28;20081;-57
2021/11/12 10:39:31;;;;;;;56.30;30.20;;;;;;;;;;4958597;28;20019;-57
2021/11/12 10:41:59;;;;;;;52.55;29.10;;;;;;;;;;4958748;28;20031;-59
2021/11/12 10:44:26;;;;;;;49.08;26.75;;;;;;;;;;4977059;28;20027;-58
2021/11/12 10:46:52;;;;;;;48.45;27.75;;;;;;;;;;4961250;28;20023;-57
2021/11/12 10:49:28;;;;;;;51.28;28.77;;;;;;;;;;4966278;28;20023;-57
2021/11/12 10:51:59;;;;;;;76.53;39.63;;;;;;;;;;4962670;28;20371;-57
2021/11/12 10:54:42;;;;;;;94.88;49.63;;;;;;;;;;4958794;28;20035;-57
2021/11/12 10:57:10;;;;;;;76.32;43.33;;;;;;;;;;4960851;28;20461;-58
2021/11/12 10:59:37;;;;;;;58.95;34.03;;;;;;;;;;4961191;28;20558;-58
2021/11/12 11:02:04;;;;;;;59.10;34.63;;;;;;;;;;4955513;28;20146;-58
2021/11/12 11:04:30;;;;;;;68.60;39.03;;;;;;;;;;4963700;28;20038;-58
2021/11/12 11:07:25;;;;;;;98.88;49.47;;;;;;;;;;4964532;28;20042;-57
2021/11/12 11:09:55;;;;;;;69.78;37.30;;;;;;;;;;4963256;28;20061;-57
2021/11/12 11:12:30;;;;;;;;;;;;;;;;;;4960232;28;20038;-57
2021/11/12 11:15:15;;;;;;;83.75;41.67;;;;;;;;;;4962907;28;19920;-58
2021/11/12 11:17:44;;;;;;;54.80;30.50;;;;;;;;;;4958641;28;20027;-58
2021/11/12 11:20:12;;;;;;;48.03;28.65;;;;;;;;;;4959390;28;20069;-58
2021/11/12 11:22:49;;;;;;;44.75;27.30;;;;;;;;;;4963391;28;20489;-58
2021/11/12 11:25:15;;;;;;;47.90;28.95;;;;;;;;;;4957514;28;20063;-58
2021/11/12 11:27:46;;;;;;;53.13;29.98;;;;;;;;;;4963735;28;20038;-58
2021/11/12 11:30:12;;;;;;;50.97;30.08;;;;;;;;;;4958787;28;20455;-58
2021/11/12 11:32:38;;;;;;;51.22;28.92;;;;;;;;;;4961643;28;20031;-58
2021/11/12 11:35:04;;;;;;;54.10;30.88;;;;;;;;;;4962588;28;20054;-58
2021/11/12 11:37:30;;;;;;;72.55;35.55;;;;;;;;;;4962994;28;20392;-58
2021/11/12 11:39:57;;;;;;;67.88;37.22;;;;;;;;;;4961708;28;20023;-58
2021/11/12 11:42:23;;;;;;;62.85;34.42;;;;;;;;;;4961758;28;20035;-58
2021/11/12 11:44:48;;;;;;;98.63;54.72;;;;;;;;;;4960674;28;20049;-58
2021/11/12 11:47:19;;;;;;;101.72;54.13;;;;;;;;;;4963697;28;20034;-58
2021/11/12 11:49:51;;;;;;;215.40;111.78;;;;;;;;;;4961144;28;20553;-59
2021/11/12 11:52:28;;;;;;;91.05;52.17;;;;;;;;;;4962573;28;20027;-57
2021/11/12 11:54:55;;;;;;;55.97;34.58;;;;;;;;;;4960686;28;20151;-58
2021/11/12 11:57:23;;;;;;;61.47;34.92;;;;;;;;;;4963994;28;20034;-57
2021/11/12 11:59:49;;;;;;;53.00;31.27;;;;;;;;;;4962688;28;20023;-57
2021/11/12 12:02:20;;;;;;;51.25;31.88;;;;;;;;;;4959025;28;20039;-57
2021/11/12 12:04:49;;;;;;;91.45;47.53;;;;;;;;;;4958596;28;20034;-58
2021/11/12 12:07:24;;;;;;;125.78;53.78;;;;;;;;;;4962969;28;20027;-58
2021/11/12 12:10:02;;;;;;;131.05;52.65;;;;;;;;;;4962606;28;20489;-58
2021/11/12 12:12:30;;;;;;;158.57;57.92;;;;;;;;;;4958494;28;20209;-59
2021/11/12 12:15:05;;;;;;;139.15;52.50;;;;;;;;;;4960297;28;20521;-58
2021/11/12 12:17:45;;;;;;;74.70;35.40;;;;;;;;;;4958943;28;20041;-59
2021/11/12 13:25:41;;;;;;;39.13;25.63;;;;;;;;;;4963347;28;20054;-59
2021/11/12 13:28:10;;;;;;;39.20;24.85;;;;;;;;;;4967163;28;20030;-59
2021/11/12 13:30:36;;;;;;;37.20;23.08;;;;;;;;;;4961544;28;20055;-59
2021/11/12 13:33:03;;;;;;;34.55;22.38;;;;;;;;;;4962919;28;20037;-60
2021/11/12 13:35:37;;;;;;;37.67;24.30;;;;;;;;;;4962053;28;20047;-58
2021/11/12 13:38:04;;;;;;;36.30;24.08;;;;;;;;;;4965482;28;20077;-59
2021/11/12 13:40:34;;;;;;;40.78;26.60;;;;;;;;;;4961849;28;20078;-58
2021/11/12 13:43:01;;;;;;;38.22;24.50;;;;;;;;;;4965282;28;20125;-58
2021/11/12 13:45:28;;;;;;;34.03;22.85;;;;;;;;;;4962292;28;20267;-58
2021/11/12 13:48:09;;;;;;;37.53;24.40;;;;;;;;;;4963040;28;20027;-59
2021/11/12 13:50:52;;;;;;;35.60;23.65;;;;;;;;;;4960561;28;20031;-59
2021/11/12 13:53:18;;;;;;;34.97;22.92;;;;;;;;;;4966623;28;20449;-59
2021/11/12 13:55:45;;;;;;;38.70;22.73;;;;;;;;;;4962678;28;20031;-59
2021/11/12 13:58:16;;;;;;;42.15;26.45;;;;;;;;;;4959829;28;20198;-59
2021/11/12 14:00:41;;;;;;;40.70;27.98;;;;;;;;;;4955974;28;20023;-59
2021/11/12 14:03:13;;;;;;;40.45;28.55;;;;;;;;;;4963864;28;20038;-59
2021/11/12 14:05:56;;;;;;;46.20;29.27;;;;;;;;;;4962698;28;20414;-59
2021/11/12 14:08:31;;;;;;;36.30;22.52;;;;;;;;;;4961674;28;20113;-60
2021/11/12 14:10:57;;;;;;;34.20;22.35;;;;;;;;;;4962763;28;20049;-58
2021/11/12 14:13:22;;;;;;;37.03;22.95;;;;;;;;;;4960901;28;20023;-60
2021/11/12 14:23:56;;;;;;;53.30;34.85;;;;;;;;;;4960942;28;20078;-59
2021/11/12 14:29:06;;;;;;;51.60;32.70;;;;;;;;;;4963467;28;20038;-59
2021/11/12 14:37:19;;;;;;;53.65;33.08;;;;;;;;;;4962718;28;20177;-59
2021/11/12 14:40:04;;;;;;;49.25;31.30;;;;;;;;;;4963351;28;20015;-59
2021/11/12 14:45:35;;;;;;;48.60;30.13;;;;;;;;;;4946911;28;20039;-59
2021/11/12 14:51:17;;;;;;;51.25;31.30;;;;;;;;;;4964140;28;20027;-59
2021/11/12 14:58:44;;;;;;;70.35;38.92;;;;;;;;;;4963078;28;20047;-58
2021/11/12 15:01:19;;;;;;;62.17;35.57;;;;;;;;;;4964039;28;20170;-59
2021/11/12 15:03:45;;;;;;;69.13;36.88;;;;;;;;;;4960423;28;20031;-59
2021/11/12 15:06:13;;;;;;;62.72;35.92;;;;;;;;;;4973379;28;20274;-59
2021/11/12 15:08:51;;;;;;;;;;;;;;;;;;;;;
2021/11/12 15:11:15;;;;;;;80.18;38.15;;;;;;;;;;4959971;28;20106;-58
2021/11/12 15:13:42;;;;;;;120.85;47.05;;;;;;;;;;4962911;28;20065;-58
2021/11/12 15:18:43;;;;;;;73.65;37.65;;;;;;;;;;4954441;28;20065;-59
2021/11/12 15:21:18;;;;;;;70.03;37.08;;;;;;;;;;4959443;28;20050;-60
2021/11/12 15:29:39;;;;;;;71.38;35.08;;;;;;;;;;4963697;28;20173;-59
2021/11/12 15:34:41;;;;;;;69.78;38.47;;;;;;;;;;4959524;28;20217;-60
2021/11/12 15:37:14;;;;;;;;;;;;;;;;;;;;;
2021/11/12 15:39:41;;;;;;;79.90;40.40;;;;;;;;;;4959490;28;20030;-58
2021/11/12 15:44:36;;;;;;;112.53;48.25;;;;;;;;;;4961062;28;20023;-58
2021/11/12 15:47:19;;;;;;;124.97;52.28;;;;;;;;;;4965087;28;20027;-58
2021/11/12 15:49:45;;;;;;;167.35;58.25;;;;;;;;;;4964643;28;20415;-57
2021/11/12 15:52:23;;;;;;;100.53;42.60;;;;;;;;;;4960581;28;20424;-58
2021/11/12 16:08:08;;;;;;;60.60;33.05;;;;;;;;;;4964179;28;20362;-58
2021/11/12 16:13:21;;;;;;;86.22;46.40;;;;;;;;;;4962820;28;20163;-59
2021/11/12 16:21:17;;;;;;;75.50;39.95;;;;;;;;;;4965354;28;20449;-58
2021/11/12 16:26:14;;;;;;;79.93;39.47;;;;;;;;;;4967089;28;20109;-58
2021/11/12 16:31:27;;;;;;;89.95;40.70;;;;;;;;;;4966774;28;20182;-58
2021/11/12 16:33:53;;;;;;;95.07;39.45;;;;;;;;;;4965498;28;20019;-58
2021/11/12 16:36:19;;;;;;;83.80;36.95;;;;;;;;;;4966661;28;20391;-59
2021/11/12 16:38:45;;;;;;;83.65;34.97;;;;;;;;;;4966226;28;20035;-58
2021/11/12 16:49:30;;;;;;;91.93;37.15;;;;;;;;;;4963762;28;20030;-58
2021/11/12 17:48:47;;;;;;;105.35;46.95;;;;;;;;;;4964371;28;20061;-57
2021/11/12 18:07:05;;;;;;;114.18;43.70;;;;;;;;;;4967448;28;20074;-59
2021/11/12 18:10:51;;;;;;;98.78;41.80;;;;;;;;;;4965818;28;20030;-58
2021/11/12 21:48:13;;;;;;;113.50;47.90;;;;;;;;;;4964907;28;20693;-59
2021/11/12 21:50:38;;;;;;;106.85;44.17;;;;;;;;;;4960256;28;20479;-59
2021/11/12 21:53:05;;;;;;;100.38;43.75;;;;;;;;;;4962411;28;20046;-59
2021/11/12 21:55:32;;;;;;;99.47;40.50;;;;;;;;;;4959038;28;20351;-60
2021/11/12 21:57:59;;;;;;;93.10;40.53;;;;;;;;;;4965374;28;20482;-59
2021/11/12 22:00:26;;;;;;;91.75;41.58;;;;;;;;;;4965396;28;20031;-58
2021/11/12 22:02:51;;;;;;;93.57;39.33;;;;;;;;;;4962254;28;20058;-58
2021/11/12 22:05:16;;;;;;;85.68;39.47;;;;;;;;;;4962848;28;20065;-58
2021/11/12 22:07:42;;;;;;;82.60;37.22;;;;;;;;;;4970474;28;20039;-58
2021/11/12 22:10:08;;;;;;;87.70;40.45;;;;;;;;;;4963199;28;20086;-58
2021/11/12 22:12:34;;;;;;;84.03;39.08;;;;;;;;;;4959366;28;20038;-59
2021/11/12 22:15:00;;;;;;;95.80;40.00;;;;;;;;;;4960237;28;20077;-58
2021/11/12 22:17:26;;;;;;;85.88;40.42;;;;;;;;;;4962406;28;20426;-58
2021/11/12 22:19:52;;;;;;;92.88;42.30;;;;;;;;;;4962799;28;20112;-59
2021/11/12 22:22:17;;;;;;;99.07;42.03;;;;;;;;;;4961335;28;20027;-58
2021/11/12 22:24:43;;;;;;;99.47;43.03;;;;;;;;;;4957479;28;20031;-59
2021/11/12 22:27:09;;;;;;;94.18;42.72;;;;;;;;;;4962350;28;20085;-58
2021/11/12 22:29:35;;;;;;;90.20;42.17;;;;;;;;;;4962409;28;20434;-59
2021/11/12 22:32:01;;;;;;;103.32;43.00;;;;;;;;;;4959616;28;20038;-59
2021/11/12 22:34:27;;;;;;;101.97;43.67;;;;;;;;;;4960242;28;20526;-58
2021/11/12 22:36:52;;;;;;;106.85;43.83;;;;;;;;;;4962974;28;20113;-57
2021/11/12 22:39:19;;;;;;;100.05;42.72;;;;;;;;;;4962692;28;20027;-59
2021/11/12 22:41:45;;;;;;;83.22;39.28;;;;;;;;;;4960055;28;20401;-58
2021/11/12 22:44:11;;;;;;;72.82;35.15;;;;;;;;;;4958520;28;20478;-58
2021/11/12 22:46:37;;;;;;;82.70;38.92;;;;;;;;;;4962378;28;20125;-58
2021/11/12 22:49:04;;;;;;;75.35;36.03;;;;;;;;;;4961961;28;20070;-58
2021/11/12 22:51:32;;;;;;;76.32;35.97;;;;;;;;;;4962937;28;20501;-59
2021/11/12 22:53:58;;;;;;;77.80;36.65;;;;;;;;;;4957384;28;20027;-59
2021/11/12 22:56:24;;;;;;;70.22;33.40;;;;;;;;;;4963955;28;20340;-58
2021/11/12 22:58:49;;;;;;;84.32;36.63;;;;;;;;;;4962336;28;20034;-59
2021/11/12 23:01:19;;;;;;;87.90;37.47;;;;;;;;;;4955950;28;20035;-58
2021/11/12 23:03:45;;;;;;;85.55;34.42;;;;;;;;;;4957702;28;20031;-59
2021/11/12 23:06:11;;;;;;;82.28;34.70;;;;;;;;;;4958050;28;20114;-59
2021/11/12 23:08:37;;;;;;;90.38;37.95;;;;;;;;;;4959816;28;20070;-58
2021/11/12 23:11:04;;;;;;;89.65;35.97;;;;;;;;;;4959877;28;20109;-58
2021/11/12 23:13:30;;;;;;;84.22;35.30;;;;;;;;;;4961443;28;20453;-59
2021/11/12 23:15:56;;;;;;;83.28;34.67;;;;;;;;;;4963481;28;20059;-58
2021/11/12 23:18:23;;;;;;;70.20;31.45;;;;;;;;;;4961564;28;20034;-58
2021/11/12 23:20:49;;;;;;;63.65;29.45;;;;;;;;;;4960523;28;20465;-58
2021/11/12 23:23:16;;;;;;;64.65;28.10;;;;;;;;;;4958465;28;20038;-58
2021/11/12 23:25:41;;;;;;;63.03;28.17;;;;;;;;;;4956867;28;20331;-58
2021/11/12 23:28:07;;;;;;;62.15;26.75;;;;;;;;;;4962019;28;20823;-58
2021/11/12 23:30:33;;;;;;;67.80;29.08;;;;;;;;;;4961284;28;20014;-58
2021/11/12 23:32:59;;;;;;;89.00;38.05;;;;;;;;;;4958252;28;20125;-59
2021/11/12 23:35:24;;;;;;;100.13;42.53;;;;;;;;;;4960379;28;20074;-58
2021/11/12 23:37:50;;;;;;;104.70;44.90;;;;;;;;;;4960961;28;20031;-58
2021/11/12 23:40:16;;;;;;;110.32;44.72;;;;;;;;;;4960773;28;20102;-58
2021/11/12 23:42:44;;;;;;;106.55;46.47;;;;;;;;;;4962083;28;20027;-58
2021/11/12 23:45:09;;;;;;;102.13;43.28;;;;;;;;;;4962274;28;20026;-57
2021/11/12 23:47:35;;;;;;;98.32;44.80;;;;;;;;;;4964340;28;20431;-58
2021/11/12 23:50:00;;;;;;;184.52;87.68;;;;;;;;;;4965081;28;20110;-58
2021/11/12 23:52:26;;;;;;;161.90;75.50;;;;;;;;;;4961922;28;20050;-59
2021/11/12 23:54:52;;;;;;;85.32;37.45;;;;;;;;;;4958423;28;20035;-59
2021/11/12 23:57:17;;;;;;;104.60;51.72;;;;;;;;;;4962894;28;20054;-59
2021/11/12 23:59:43;;;;;;;104.07;50.22;;;;;;;;;;4961758;28;20078;-58
